Oban — PDWJ — position and weather

sailwx.info

Track history (hours):
 
Tides and Currents Weather Stations Pressure Air Temp Water Temp Dewpoint Dewpoint Depression Visibility Wind Speed Wind Dir Waves Ship Positions

Oban

Last reported at 2018-Apr-26 10:49 UTC. Time now 2018-Apr-26 19:13 UTC.
Position N 54°22' E 009°50'.

Length 39 m; draft 2.8 m.

Type: Sailing vessel. MMSI: 246085000.

Date/timePositionNaut miles runAvg speedWind from/ knotsBaromVisibWave heightAir tempDewpointWater temp
2018-Apr-26 10:49N 54°22' E 009°50'2 6.9
2018-Apr-26 10:30N 54°21' E 009°46'3 6.8
2018-Apr-26 10:00N 54°18' E 009°43'2 4.5
2018-Apr-26 09:30N 54°17' E 009°39'4 7.1
2018-Apr-26 09:00N 54°14' E 009°37'4 7.2
2018-Apr-26 08:30N 54°12' E 009°32'4 7.3
2018-Apr-26 08:00N 54°10' E 009°26'4 7.1
2018-Apr-26 07:30N 54°09' E 009°21'3 6.7
2018-Apr-26 07:00N 54°05' E 009°20'3 6.9
2018-Apr-26 06:30N 54°02' E 009°18'3 6.8
2018-Apr-26 06:00N 53°59' E 009°17'4 6.9
2018-Apr-26 05:30N 53°56' E 009°13'3 5.7
2018-Apr-26 05:00N 53°54' E 009°09'0 0.0
2018-Apr-26 04:29N 53°54' E 009°09'0 0.0
2018-Apr-26 03:59N 53°54' E 009°09'0 0.0
2018-Apr-26 03:20N 53°54' E 009°09'0 0.0
2018-Apr-26 02:59N 53°54' E 009°09'0 0.0
2018-Apr-26 02:20N 53°54' E 009°09'0 0.0
2018-Apr-26 01:53N 53°54' E 009°09'0 0.0
2018-Apr-26 01:28N 53°54' E 009°09'0 0.0
2018-Apr-26 00:59N 53°54' E 009°09'0 0.0
2018-Apr-26 00:25N 53°54' E 009°09'0 0.0
2018-Apr-25 23:55N 53°54' E 009°09'0 0.0
2018-Apr-25 23:26N 53°54' E 009°09'0 0.0
2018-Apr-25 22:46N 53°54' E 009°09'0 0.0
2018-Apr-25 22:28N 53°54' E 009°09'0 0.0
2018-Apr-25 21:55N 53°54' E 009°09'0 0.0
2018-Apr-25 21:29N 53°54' E 009°09'0 0.0
2018-Apr-25 20:58N 53°54' E 009°09'0 0.0
2018-Apr-25 20:28N 53°54' E 009°09'0 0.4
2018-Apr-25 20:00N 53°54' E 009°09'1 1.4
2018-Apr-25 19:30N 53°53' E 009°09'2 3.6
2018-Apr-25 19:00N 53°52' E 009°06'4 7.6
2018-Apr-25 18:31N 53°51' E 008°60'5 9.1
2018-Apr-25 18:00N 53°50' E 008°52'4 8.7
2018-Apr-25 17:30N 53°51' E 008°45'4 8.9
2018-Apr-25 17:00N 53°55' E 008°41'5 9.4
2018-Apr-25 16:30N 53°58' E 008°34'5 9.2
2018-Apr-25 15:59N 53°59' E 008°26'6 8.6
2018-Apr-25 15:14N 54°02' E 008°17'  
2018-Apr-23 10:56N 53°33' E 005°31'3 6.7
2018-Apr-23 10:29N 53°31' E 005°27'3 6.8
2018-Apr-23 10:00N 53°29' E 005°23'3 6.4
2018-Apr-23 09:30N 53°28' E 005°18'4 7.0
2018-Apr-23 09:00N 53°28' E 005°12'3 6.2
2018-Apr-23 08:31N 53°28' E 005°07'3 6.6
2018-Apr-23 08:00N 53°26' E 005°04'3 6.6
2018-Apr-23 07:30N 53°23' E 005°01'3 6.7
2018-Apr-23 07:00N 53°20' E 004°59'3 6.1
2018-Apr-23 06:30N 53°19' E 005°04'3 7.1
2018-Apr-23 06:00N 53°19' E 005°10'4 7.6
2018-Apr-23 05:30N 53°15' E 005°10'4 7.5
2018-Apr-23 05:00N 53°14' E 005°16'3 6.9
2018-Apr-23 04:30N 53°11' E 005°20'3 5.9
2018-Apr-23 04:00N 53°10' E 005°25'0 0.2
2018-Apr-23 03:30N 53°10' E 005°25'0 0.0
2018-Apr-23 03:00N 53°10' E 005°25'0 0.0
2018-Apr-23 02:30N 53°10' E 005°25'0 0.0
2018-Apr-23 02:00N 53°10' E 005°25'0 0.0
2018-Apr-23 01:30N 53°10' E 005°25'0 0.0
2018-Apr-23 01:00N 53°10' E 005°25'0 0.0
2018-Apr-23 00:30N 53°10' E 005°25'0 0.0
2018-Apr-23 00:00N 53°10' E 005°25'0 0.0
2018-Apr-22 23:30N 53°10' E 005°25'0 0.0
2018-Apr-22 23:00N 53°10' E 005°25'0 0.0
2018-Apr-22 22:30N 53°10' E 005°25'0 0.0
2018-Apr-22 22:00N 53°10' E 005°25'0 0.0
2018-Apr-22 21:30N 53°10' E 005°25'0 0.0
2018-Apr-22 21:00N 53°10' E 005°25'0 0.0
2018-Apr-22 20:30N 53°10' E 005°25'0 0.0
2018-Apr-22 20:00N 53°10' E 005°25'0 0.0
2018-Apr-22 19:30N 53°10' E 005°25'0 0.0
2018-Apr-22 19:00N 53°10' E 005°25'0 0.0
2018-Apr-22 18:30N 53°10' E 005°25'0 0.0
2018-Apr-22 18:00N 53°10' E 005°25'0 0.0
2018-Apr-22 17:30N 53°10' E 005°25'0 0.0
2018-Apr-22 17:00N 53°10' E 005°25'0 0.0
2018-Apr-22 16:30N 53°10' E 005°25'0 0.0
2018-Apr-22 16:00N 53°10' E 005°25'0 0.0
2018-Apr-22 15:30N 53°10' E 005°25'0 0.0
2018-Apr-22 15:00N 53°10' E 005°25'0 0.0
2018-Apr-22 14:30N 53°10' E 005°25'0 0.8
2018-Apr-22 14:00N 53°11' E 005°24'3 5.7
2018-Apr-22 13:30N 53°08' E 005°23'3 6.0
2018-Apr-22 13:00N 53°05' E 005°21'1 2.0
2018-Apr-22 12:30N 53°04' E 005°20'0 0.4
2018-Apr-22 12:00N 53°04' E 005°20'2 4.1
2018-Apr-22 11:30N 53°02' E 005°21'3 6.3
2018-Apr-22 11:00N 52°59' E 005°19'2 3.6
2018-Apr-22 10:30N 52°57' E 005°19'2 3.6
2018-Apr-22 10:00N 52°55' E 005°19'3 5.8
2018-Apr-22 09:30N 52°52' E 005°19'3 5.4
2018-Apr-22 09:00N 52°50' E 005°19'1 2.3
2018-Apr-22 08:30N 52°49' E 005°19'2 3.6
2018-Apr-22 08:00N 52°47' E 005°20'2 3.7
2018-Apr-22 07:30N 52°46' E 005°22'2 3.4
2018-Apr-22 07:00N 52°44' E 005°24'2 4.1
2018-Apr-22 06:30N 52°43' E 005°26'2 4.4
2018-Apr-22 06:00N 52°41' E 005°29'2 4.8
2018-Apr-22 05:30N 52°40' E 005°32'3 5.2
2018-Apr-22 05:00N 52°40' E 005°36'0 0.0
2018-Apr-22 04:30N 52°40' E 005°36'0 0.0
2018-Apr-22 04:00N 52°40' E 005°36'0 0.0
2018-Apr-22 03:30N 52°40' E 005°36'0 0.0
2018-Apr-22 03:00N 52°40' E 005°36'0 0.0
2018-Apr-22 02:30N 52°40' E 005°36'0 0.0
2018-Apr-22 02:00N 52°40' E 005°36'0 0.0
2018-Apr-22 01:30N 52°40' E 005°36'0 0.0
2018-Apr-22 01:00N 52°40' E 005°36'0 0.0
2018-Apr-22 00:30N 52°40' E 005°36'0 0.0
2018-Apr-22 00:00N 52°40' E 005°36'0 0.0
2018-Apr-21 23:30N 52°40' E 005°36'0 0.0
2018-Apr-21 23:00N 52°40' E 005°36'0 0.0
2018-Apr-21 22:30N 52°40' E 005°36'0 0.0
2018-Apr-21 22:00N 52°40' E 005°36'0 0.0
2018-Apr-21 21:30N 52°40' E 005°36'0 0.0
2018-Apr-21 21:00N 52°40' E 005°36'0 0.0
2018-Apr-21 20:30N 52°40' E 005°36'0 0.0
2018-Apr-21 20:00N 52°40' E 005°36'0 0.0
2018-Apr-21 19:30N 52°40' E 005°36'0 0.0
2018-Apr-21 19:00N 52°40' E 005°36'0 0.0
2018-Apr-21 18:30N 52°40' E 005°36'0 0.0
2018-Apr-21 18:00N 52°40' E 005°36'0 0.0
2018-Apr-21 17:30N 52°40' E 005°36'0 0.0
2018-Apr-21 17:00N 52°40' E 005°36'0 0.0
2018-Apr-21 16:30N 52°40' E 005°36'0 0.0
2018-Apr-21 16:00N 52°40' E 005°36'0 0.0
2018-Apr-21 15:30N 52°40' E 005°36'0 0.0
2018-Apr-21 15:00N 52°40' E 005°36'0 0.0
2018-Apr-21 14:30N 52°40' E 005°36'0 0.0
2018-Apr-21 14:00N 52°40' E 005°36'0 0.2
2018-Apr-21 13:30N 52°39' E 005°36'3 5.4
2018-Apr-21 13:00N 52°37' E 005°38'1 2.7
2018-Apr-21 12:30N 52°36' E 005°40'3 5.9
2018-Apr-21 12:00N 52°35' E 005°44'3 7.0
2018-Apr-21 11:30N 52°35' E 005°50'3 6.5
2018-Apr-21 11:00N 52°34' E 005°55'0 0.1
2018-Apr-21 10:30N 52°34' E 005°55'0 0.0
2018-Apr-21 10:00N 52°34' E 005°55'0 0.0
2018-Apr-21 09:30N 52°34' E 005°55'0 0.0
2018-Apr-21 09:00N 52°34' E 005°55'0 0.0
2018-Apr-21 08:30N 52°34' E 005°55'0 0.0
2018-Apr-21 08:00N 52°34' E 005°55'0 0.0
2018-Apr-21 07:30N 52°34' E 005°55'0 0.0
2018-Apr-21 07:00N 52°34' E 005°55'0 0.0
2018-Apr-21 06:30N 52°34' E 005°55'0 0.0
2018-Apr-21 06:00N 52°34' E 005°55'0 0.0
2018-Apr-21 05:30N 52°34' E 005°55'0 0.0
2018-Apr-21 05:00N 52°34' E 005°55'0 0.0
2018-Apr-21 04:30N 52°34' E 005°55'0 0.0
2018-Apr-21 04:00N 52°34' E 005°55'0 0.0
2018-Apr-21 03:30N 52°34' E 005°55'0 0.0
2018-Apr-21 03:00N 52°34' E 005°55'0 0.0
2018-Apr-21 02:30N 52°34' E 005°55'0 0.0
2018-Apr-21 02:00N 52°34' E 005°55'0 0.0
2018-Apr-21 01:30N 52°34' E 005°55'0 0.0
2018-Apr-21 01:00N 52°34' E 005°55'0 0.0
2018-Apr-21 00:30N 52°34' E 005°55'0 0.0
2018-Apr-21 00:00N 52°34' E 005°55'0 0.0
2018-Apr-20 23:30N 52°34' E 005°55'0 0.0
2018-Apr-20 23:00N 52°34' E 005°55'0 0.0
2018-Apr-20 22:30N 52°34' E 005°55'0 0.0
2018-Apr-20 22:00N 52°34' E 005°55'0 0.0
2018-Apr-20 21:30N 52°34' E 005°55'0 0.0
2018-Apr-20 21:00N 52°34' E 005°55'0 0.0
2018-Apr-20 20:30N 52°34' E 005°55'0 0.0
2018-Apr-20 20:00N 52°34' E 005°55'0 0.0
2018-Apr-20 19:30N 52°34' E 005°55'0 0.0
2018-Apr-20 19:00N 52°34' E 005°55'0 0.0
2018-Apr-20 18:29N 52°34' E 005°55'0 0.0
2018-Apr-20 18:00N 52°34' E 005°55'0 0.0
2018-Apr-20 17:30N 52°34' E 005°55'0 0.0
2018-Apr-20 17:00N 52°34' E 005°55'0 0.0
2018-Apr-20 16:30N 52°34' E 005°55'0 0.0
2018-Apr-20 16:00N 52°34' E 005°55'0 0.0
2018-Apr-20 15:30N 52°34' E 005°55'0 0.0
2018-Apr-20 15:00N 52°34' E 005°55'0 0.0
2018-Apr-20 14:30N 52°34' E 005°55'0 0.0
2018-Apr-20 14:00N 52°34' E 005°55'0 0.0
2018-Apr-20 13:30N 52°34' E 005°55'0 0.0
2018-Apr-20 13:00N 52°34' E 005°55'0 0.0
2018-Apr-20 12:30N 52°34' E 005°55'0 0.0
2018-Apr-20 12:00N 52°34' E 005°55'0 0.0
2018-Apr-20 11:30N 52°34' E 005°55'0 0.0
2018-Apr-20 11:00N 52°34' E 005°55'0 0.0
2018-Apr-20 10:30N 52°34' E 005°55'0 0.0
2018-Apr-20 10:00N 52°34' E 005°55'0 0.0
2018-Apr-20 09:30N 52°34' E 005°55'0 0.0
2018-Apr-20 09:00N 52°34' E 005°55'0 0.0
2018-Apr-20 08:30N 52°34' E 005°55'0 0.0
2018-Apr-20 08:00N 52°34' E 005°55'0 0.0
2018-Apr-20 07:30N 52°34' E 005°55'0 0.0
2018-Apr-20 07:00N 52°34' E 005°55'0 0.0
2018-Apr-20 06:30N 52°34' E 005°55'0 0.0
2018-Apr-20 06:00N 52°34' E 005°55'0 0.0
2018-Apr-20 05:30N 52°34' E 005°55'0 0.0
2018-Apr-20 05:00N 52°34' E 005°55'0 0.0
2018-Apr-20 04:30N 52°34' E 005°55'0 0.0
2018-Apr-20 04:00N 52°34' E 005°55'0 0.0
2018-Apr-20 03:30N 52°34' E 005°55'0 0.0
2018-Apr-20 03:00N 52°34' E 005°55'0 0.0
2018-Apr-20 02:30N 52°34' E 005°55'0 0.0
2018-Apr-20 02:00N 52°34' E 005°55'0 0.0
2018-Apr-20 01:30N 52°34' E 005°55'0 0.0
2018-Apr-20 01:00N 52°34' E 005°55'0 0.0
2018-Apr-20 00:30N 52°34' E 005°55'0 0.0
2018-Apr-20 00:00N 52°34' E 005°55'0 0.0
2018-Apr-19 23:30N 52°34' E 005°55'0 0.0
2018-Apr-19 23:00N 52°34' E 005°55'0 0.0
2018-Apr-19 22:30N 52°34' E 005°55'0 0.0
2018-Apr-19 22:00N 52°34' E 005°55'0 0.0
2018-Apr-19 21:30N 52°34' E 005°55'0 0.0
2018-Apr-19 21:00N 52°34' E 005°55'0 0.0
2018-Apr-19 20:30N 52°34' E 005°55'0 0.0
2018-Apr-19 20:00N 52°34' E 005°55'0 0.0
2018-Apr-19 19:30N 52°34' E 005°55'0 0.0
2018-Apr-19 19:00N 52°34' E 005°55'0 0.0
2018-Apr-19 18:30N 52°34' E 005°55'0 0.0
2018-Apr-19 18:00N 52°34' E 005°55'0 0.0
2018-Apr-19 17:30N 52°34' E 005°55'0 0.0
2018-Apr-19 17:00N 52°34' E 005°55'0 0.0
2018-Apr-19 16:30N 52°34' E 005°55'0 0.0
2018-Apr-19 16:00N 52°34' E 005°55'0 0.0
2018-Apr-19 15:30N 52°34' E 005°55'0 0.0
2018-Apr-19 15:00N 52°34' E 005°55'0 0.0
2018-Apr-19 14:30N 52°34' E 005°55'0 0.0
2018-Apr-19 14:00N 52°34' E 005°55'0 0.0
2018-Apr-19 13:30N 52°34' E 005°55'0 0.0
2018-Apr-19 13:00N 52°34' E 005°55'0 0.0
2018-Apr-19 12:30N 52°34' E 005°55'0 0.0
2018-Apr-19 12:00N 52°34' E 005°55'0 0.0
2018-Apr-19 11:30N 52°34' E 005°55'0 0.0
2018-Apr-19 11:00N 52°34' E 005°55'0 0.0
2018-Apr-19 10:30N 52°34' E 005°55'0 0.0
2018-Apr-19 10:00N 52°34' E 005°55'0 0.0
2018-Apr-19 09:30N 52°34' E 005°55'0 0.0
2018-Apr-19 09:00N 52°34' E 005°55'0 0.0
2018-Apr-19 08:30N 52°34' E 005°55'0 0.0
2018-Apr-19 08:00N 52°34' E 005°55'0 0.0
2018-Apr-19 07:30N 52°34' E 005°55'0 0.0
2018-Apr-19 07:00N 52°34' E 005°55'0 0.0
2018-Apr-19 06:30N 52°34' E 005°55'0 0.0
2018-Apr-19 06:00N 52°34' E 005°55'0 0.0
2018-Apr-19 05:30N 52°34' E 005°55'0 0.0
2018-Apr-19 05:00N 52°34' E 005°55'0 0.0
2018-Apr-19 04:30N 52°34' E 005°55'0 0.0
2018-Apr-19 04:00N 52°34' E 005°55'0 0.0
2018-Apr-19 03:30N 52°34' E 005°55'0 0.0
2018-Apr-19 03:00N 52°34' E 005°55'0 0.0
2018-Apr-19 02:30N 52°34' E 005°55'0 0.0
2018-Apr-19 02:00N 52°34' E 005°55'0 0.0
2018-Apr-19 01:30N 52°34' E 005°55'0 0.0
2018-Apr-19 01:00N 52°34' E 005°55'0 0.0
2018-Apr-19 00:30N 52°34' E 005°55'0 0.0
2018-Apr-19 00:00N 52°34' E 005°55'0 0.0
2018-Apr-18 23:30N 52°34' E 005°55'0 0.0
2018-Apr-18 23:00N 52°34' E 005°55'0 0.0
2018-Apr-18 22:30N 52°34' E 005°55'0 0.0
2018-Apr-18 22:00N 52°34' E 005°55'0 0.0
2018-Apr-18 21:30N 52°34' E 005°55'0 0.0
2018-Apr-18 21:00N 52°34' E 005°55'0 0.0
2018-Apr-18 20:30N 52°34' E 005°55'0 0.0
2018-Apr-18 20:00N 52°34' E 005°55'0 0.0
2018-Apr-18 19:30N 52°34' E 005°55'0 0.0
2018-Apr-18 19:00N 52°34' E 005°55'0 0.0
2018-Apr-18 18:30N 52°34' E 005°55'0 0.0
2018-Apr-18 18:00N 52°34' E 005°55'0 0.0
2018-Apr-18 17:30N 52°34' E 005°55'0 0.0
2018-Apr-18 17:00N 52°34' E 005°55'0 0.0
2018-Apr-18 16:30N 52°34' E 005°55'0 0.0
2018-Apr-18 16:00N 52°34' E 005°55'0 0.0
2018-Apr-18 15:30N 52°34' E 005°55'0 0.0
2018-Apr-18 15:00N 52°34' E 005°55'0 0.0
2018-Apr-18 14:30N 52°34' E 005°55'0 0.0
2018-Apr-18 14:00N 52°34' E 005°55'0 0.0
2018-Apr-18 13:30N 52°34' E 005°55'0 0.0
2018-Apr-18 13:00N 52°34' E 005°55'0 0.0
2018-Apr-18 12:30N 52°34' E 005°55'0 0.0
2018-Apr-18 12:00N 52°34' E 005°55'0 0.0
2018-Apr-18 11:30N 52°34' E 005°55'0 0.0
2018-Apr-18 11:00N 52°34' E 005°55'0 0.0
2018-Apr-18 10:30N 52°34' E 005°55'0 0.0
2018-Apr-18 10:00N 52°34' E 005°55'0 0.0
2018-Apr-18 09:30N 52°34' E 005°55'0 0.0
2018-Apr-18 09:00N 52°34' E 005°55'0 0.0
2018-Apr-18 08:30N 52°34' E 005°55'0 0.0
2018-Apr-18 08:00N 52°34' E 005°55'0 0.0
2018-Apr-18 07:30N 52°34' E 005°55'0 0.0
2018-Apr-18 07:00N 52°34' E 005°55'0 0.0
2018-Apr-18 06:30N 52°34' E 005°55'0 0.0
2018-Apr-18 06:00N 52°34' E 005°55'0 0.0
2018-Apr-18 05:30N 52°34' E 005°55'0 0.0
2018-Apr-18 05:00N 52°34' E 005°55'0 0.0
2018-Apr-18 04:30N 52°34' E 005°55'0 0.0
2018-Apr-18 04:00N 52°34' E 005°55'0 0.0
2018-Apr-18 03:30N 52°34' E 005°55'0 0.0
2018-Apr-18 03:00N 52°34' E 005°55'0 0.0
2018-Apr-18 02:30N 52°34' E 005°55'0 0.0
2018-Apr-18 02:00N 52°34' E 005°55'0 0.0
2018-Apr-18 01:30N 52°34' E 005°55'0 0.0
2018-Apr-18 01:00N 52°34' E 005°55'0 0.0
2018-Apr-18 00:30N 52°34' E 005°55'0 0.0
2018-Apr-18 00:00N 52°34' E 005°55'0 0.0
2018-Apr-17 23:30N 52°34' E 005°55'0 0.0
2018-Apr-17 23:00N 52°34' E 005°55'0 0.0
2018-Apr-17 22:30N 52°34' E 005°55'0 0.0
2018-Apr-17 22:00N 52°34' E 005°55'0 0.0
2018-Apr-17 21:30N 52°34' E 005°55'0 0.0
2018-Apr-17 21:00N 52°34' E 005°55'0 0.0
2018-Apr-17 20:30N 52°34' E 005°55'0 0.0
2018-Apr-17 20:00N 52°34' E 005°55'0 0.0
2018-Apr-17 19:30N 52°34' E 005°55'0 0.0
2018-Apr-17 19:00N 52°34' E 005°55'0 0.0
2018-Apr-17 18:30N 52°34' E 005°55'0 0.0
2018-Apr-17 18:00N 52°34' E 005°55'0 0.0
2018-Apr-17 17:30N 52°34' E 005°55'0 0.0
2018-Apr-17 17:00N 52°34' E 005°55'0 0.0
2018-Apr-17 16:30N 52°34' E 005°55'0 0.0
2018-Apr-17 16:00N 52°34' E 005°55'0 0.0
2018-Apr-17 15:30N 52°34' E 005°55'0 0.0
2018-Apr-17 15:00N 52°34' E 005°55'0 0.0
2018-Apr-17 14:30N 52°34' E 005°55'0 0.0
2018-Apr-17 14:00N 52°34' E 005°55'0 0.0
2018-Apr-17 13:30N 52°34' E 005°55'0 0.0
2018-Apr-17 13:00N 52°34' E 005°55'0 0.0
2018-Apr-17 12:30N 52°34' E 005°55'0 0.0
2018-Apr-17 12:00N 52°34' E 005°55'0 0.0
2018-Apr-17 11:30N 52°34' E 005°55'0 0.0
2018-Apr-17 11:00N 52°34' E 005°55'0 0.0
2018-Apr-17 10:30N 52°34' E 005°55'0 0.0
2018-Apr-17 10:00N 52°34' E 005°55'0 0.0
2018-Apr-17 09:30N 52°34' E 005°55'0 0.0
2018-Apr-17 09:00N 52°34' E 005°55'0 0.0
2018-Apr-17 08:30N 52°34' E 005°55'0 0.0
2018-Apr-17 08:00N 52°34' E 005°55'0 0.0
2018-Apr-17 07:30N 52°34' E 005°55'0 0.0
2018-Apr-17 07:00N 52°34' E 005°55'0 0.0
2018-Apr-17 06:30N 52°34' E 005°55'0 0.0
2018-Apr-17 06:00N 52°34' E 005°55'0 0.0
2018-Apr-17 05:30N 52°34' E 005°55'0 0.0
2018-Apr-17 05:00N 52°34' E 005°55'0 0.0
2018-Apr-17 04:30N 52°34' E 005°55'0 0.0
2018-Apr-17 04:00N 52°34' E 005°55'0 0.0
2018-Apr-17 03:30N 52°34' E 005°55'0 0.0
2018-Apr-17 03:00N 52°34' E 005°55'0 0.0
2018-Apr-17 02:30N 52°34' E 005°55'0 0.0
2018-Apr-17 02:00N 52°34' E 005°55'0 0.0
2018-Apr-17 01:30N 52°34' E 005°55'0 0.0
2018-Apr-17 01:00N 52°34' E 005°55'0 0.0
2018-Apr-17 00:30N 52°34' E 005°55'0 0.0
2018-Apr-17 00:00N 52°34' E 005°55'0 0.0
2018-Apr-16 23:30N 52°34' E 005°55'0 0.0
2018-Apr-16 23:00N 52°34' E 005°55'0 0.0
2018-Apr-16 22:30N 52°34' E 005°55'0 0.0
2018-Apr-16 22:00N 52°34' E 005°55'0 0.0
2018-Apr-16 21:30N 52°34' E 005°55'0 0.0
2018-Apr-16 21:00N 52°34' E 005°55'0 0.0
2018-Apr-16 20:30N 52°34' E 005°55'0 0.0
2018-Apr-16 20:00N 52°34' E 005°55'0 0.0
2018-Apr-16 19:30N 52°34' E 005°55'0 0.0
2018-Apr-16 19:00N 52°34' E 005°55'0 0.0
2018-Apr-16 18:30N 52°34' E 005°55'0 0.0
2018-Apr-16 18:00N 52°34' E 005°55'0 0.0
2018-Apr-16 17:30N 52°34' E 005°55'0 0.0
2018-Apr-16 17:00N 52°34' E 005°55'0 0.0
2018-Apr-16 16:30N 52°34' E 005°55'0 0.0
2018-Apr-16 16:00N 52°34' E 005°55'0 0.0
2018-Apr-16 15:30N 52°34' E 005°55'0 0.0
2018-Apr-16 15:00N 52°34' E 005°55'0 0.0
2018-Apr-16 14:30N 52°34' E 005°55'0 0.0
2018-Apr-16 14:00N 52°34' E 005°55'0 0.0
2018-Apr-16 13:30N 52°34' E 005°55'0 0.0
2018-Apr-16 13:00N 52°34' E 005°55'0 0.0
2018-Apr-16 12:30N 52°34' E 005°55'0 0.0
2018-Apr-16 12:00N 52°34' E 005°55'0 0.0
2018-Apr-16 11:30N 52°34' E 005°55'0 0.0
2018-Apr-16 11:00N 52°34' E 005°55'  
Track history (hours):
 
Tides and Currents Weather Stations Pressure Air Temp Water Temp Dewpoint Dewpoint Depression Visibility Wind Speed Wind Dir Waves Ship Positions

Oban

Last reported at 2018-Apr-26 10:49 UTC. Time now 2018-Apr-26 19:13 UTC.
Position N 54°22' E 009°50'.

Length 39 m; draft 2.8 m.

Type: Sailing vessel. MMSI: 246085000.

Date/timePositionNaut miles runAvg speedWind from/ knotsBaromVisibWave heightAir tempDewpointWater temp
2018-Apr-26 10:49N 54°22' E 009°50'2 6.9
2018-Apr-26 10:30N 54°21' E 009°46'3 6.8
2018-Apr-26 10:00N 54°18' E 009°43'2 4.5
2018-Apr-26 09:30N 54°17' E 009°39'4 7.1
2018-Apr-26 09:00N 54°14' E 009°37'4 7.2
2018-Apr-26 08:30N 54°12' E 009°32'4 7.3
2018-Apr-26 08:00N 54°10' E 009°26'4 7.1
2018-Apr-26 07:30N 54°09' E 009°21'3 6.7
2018-Apr-26 07:00N 54°05' E 009°20'3 6.9
2018-Apr-26 06:30N 54°02' E 009°18'3 6.8
2018-Apr-26 06:00N 53°59' E 009°17'4 6.9
2018-Apr-26 05:30N 53°56' E 009°13'3 5.7
2018-Apr-26 05:00N 53°54' E 009°09'0 0.0
2018-Apr-26 04:29N 53°54' E 009°09'0 0.0
2018-Apr-26 03:59N 53°54' E 009°09'0 0.0
2018-Apr-26 03:20N 53°54' E 009°09'0 0.0
2018-Apr-26 02:59N 53°54' E 009°09'0 0.0
2018-Apr-26 02:20N 53°54' E 009°09'0 0.0
2018-Apr-26 01:53N 53°54' E 009°09'0 0.0
2018-Apr-26 01:28N 53°54' E 009°09'0 0.0
2018-Apr-26 00:59N 53°54' E 009°09'0 0.0
2018-Apr-26 00:25N 53°54' E 009°09'0 0.0
2018-Apr-25 23:55N 53°54' E 009°09'0 0.0
2018-Apr-25 23:26N 53°54' E 009°09'0 0.0
2018-Apr-25 22:46N 53°54' E 009°09'0 0.0
2018-Apr-25 22:28N 53°54' E 009°09'0 0.0
2018-Apr-25 21:55N 53°54' E 009°09'0 0.0
2018-Apr-25 21:29N 53°54' E 009°09'0 0.0
2018-Apr-25 20:58N 53°54' E 009°09'0 0.0
2018-Apr-25 20:28N 53°54' E 009°09'0 0.4
2018-Apr-25 20:00N 53°54' E 009°09'1 1.4
2018-Apr-25 19:30N 53°53' E 009°09'2 3.6
2018-Apr-25 19:00N 53°52' E 009°06'4 7.6
2018-Apr-25 18:31N 53°51' E 008°60'5 9.1
2018-Apr-25 18:00N 53°50' E 008°52'4 8.7
2018-Apr-25 17:30N 53°51' E 008°45'4 8.9
2018-Apr-25 17:00N 53°55' E 008°41'5 9.4
2018-Apr-25 16:30N 53°58' E 008°34'5 9.2
2018-Apr-25 15:59N 53°59' E 008°26'6 8.6
2018-Apr-25 15:14N 54°02' E 008°17'  
2018-Apr-23 10:56N 53°33' E 005°31'3 6.7
2018-Apr-23 10:29N 53°31' E 005°27'3 6.8
2018-Apr-23 10:00N 53°29' E 005°23'3 6.4
2018-Apr-23 09:30N 53°28' E 005°18'4 7.0
2018-Apr-23 09:00N 53°28' E 005°12'3 6.2
2018-Apr-23 08:31N 53°28' E 005°07'3 6.6
2018-Apr-23 08:00N 53°26' E 005°04'3 6.6
2018-Apr-23 07:30N 53°23' E 005°01'3 6.7
2018-Apr-23 07:00N 53°20' E 004°59'3 6.1
2018-Apr-23 06:30N 53°19' E 005°04'3 7.1
2018-Apr-23 06:00N 53°19' E 005°10'4 7.6
2018-Apr-23 05:30N 53°15' E 005°10'4 7.5
2018-Apr-23 05:00N 53°14' E 005°16'3 6.9
2018-Apr-23 04:30N 53°11' E 005°20'3 5.9
2018-Apr-23 04:00N 53°10' E 005°25'0 0.2
2018-Apr-23 03:30N 53°10' E 005°25'0 0.0
2018-Apr-23 03:00N 53°10' E 005°25'0 0.0
2018-Apr-23 02:30N 53°10' E 005°25'0 0.0
2018-Apr-23 02:00N 53°10' E 005°25'0 0.0
2018-Apr-23 01:30N 53°10' E 005°25'0 0.0
2018-Apr-23 01:00N 53°10' E 005°25'0 0.0
2018-Apr-23 00:30N 53°10' E 005°25'0 0.0
2018-Apr-23 00:00N 53°10' E 005°25'0 0.0
2018-Apr-22 23:30N 53°10' E 005°25'0 0.0
2018-Apr-22 23:00N 53°10' E 005°25'0 0.0
2018-Apr-22 22:30N 53°10' E 005°25'0 0.0
2018-Apr-22 22:00N 53°10' E 005°25'0 0.0
2018-Apr-22 21:30N 53°10' E 005°25'0 0.0
2018-Apr-22 21:00N 53°10' E 005°25'0 0.0
2018-Apr-22 20:30N 53°10' E 005°25'0 0.0
2018-Apr-22 20:00N 53°10' E 005°25'0 0.0
2018-Apr-22 19:30N 53°10' E 005°25'0 0.0
2018-Apr-22 19:00N 53°10' E 005°25'0 0.0
2018-Apr-22 18:30N 53°10' E 005°25'0 0.0
2018-Apr-22 18:00N 53°10' E 005°25'0 0.0
2018-Apr-22 17:30N 53°10' E 005°25'0 0.0
2018-Apr-22 17:00N 53°10' E 005°25'0 0.0
2018-Apr-22 16:30N 53°10' E 005°25'0 0.0
2018-Apr-22 16:00N 53°10' E 005°25'0 0.0
2018-Apr-22 15:30N 53°10' E 005°25'0 0.0
2018-Apr-22 15:00N 53°10' E 005°25'0 0.0
2018-Apr-22 14:30N 53°10' E 005°25'0 0.8
2018-Apr-22 14:00N 53°11' E 005°24'3 5.7
2018-Apr-22 13:30N 53°08' E 005°23'3 6.0
2018-Apr-22 13:00N 53°05' E 005°21'1 2.0
2018-Apr-22 12:30N 53°04' E 005°20'0 0.4
2018-Apr-22 12:00N 53°04' E 005°20'2 4.1
2018-Apr-22 11:30N 53°02' E 005°21'3 6.3
2018-Apr-22 11:00N 52°59' E 005°19'2 3.6
2018-Apr-22 10:30N 52°57' E 005°19'2 3.6
2018-Apr-22 10:00N 52°55' E 005°19'3 5.8
2018-Apr-22 09:30N 52°52' E 005°19'3 5.4
2018-Apr-22 09:00N 52°50' E 005°19'1 2.3
2018-Apr-22 08:30N 52°49' E 005°19'2 3.6
2018-Apr-22 08:00N 52°47' E 005°20'2 3.7
2018-Apr-22 07:30N 52°46' E 005°22'2 3.4
2018-Apr-22 07:00N 52°44' E 005°24'2 4.1
2018-Apr-22 06:30N 52°43' E 005°26'2 4.4
2018-Apr-22 06:00N 52°41' E 005°29'2 4.8
2018-Apr-22 05:30N 52°40' E 005°32'3 5.2
2018-Apr-22 05:00N 52°40' E 005°36'0 0.0
2018-Apr-22 04:30N 52°40' E 005°36'0 0.0
2018-Apr-22 04:00N 52°40' E 005°36'0 0.0
2018-Apr-22 03:30N 52°40' E 005°36'0 0.0
2018-Apr-22 03:00N 52°40' E 005°36'0 0.0
2018-Apr-22 02:30N 52°40' E 005°36'0 0.0
2018-Apr-22 02:00N 52°40' E 005°36'0 0.0
2018-Apr-22 01:30N 52°40' E 005°36'0 0.0
2018-Apr-22 01:00N 52°40' E 005°36'0 0.0
2018-Apr-22 00:30N 52°40' E 005°36'0 0.0
2018-Apr-22 00:00N 52°40' E 005°36'0 0.0
2018-Apr-21 23:30N 52°40' E 005°36'0 0.0
2018-Apr-21 23:00N 52°40' E 005°36'0 0.0
2018-Apr-21 22:30N 52°40' E 005°36'0 0.0
2018-Apr-21 22:00N 52°40' E 005°36'0 0.0
2018-Apr-21 21:30N 52°40' E 005°36'0 0.0
2018-Apr-21 21:00N 52°40' E 005°36'0 0.0
2018-Apr-21 20:30N 52°40' E 005°36'0 0.0
2018-Apr-21 20:00N 52°40' E 005°36'0 0.0
2018-Apr-21 19:30N 52°40' E 005°36'0 0.0
2018-Apr-21 19:00N 52°40' E 005°36'0 0.0
2018-Apr-21 18:30N 52°40' E 005°36'0 0.0
2018-Apr-21 18:00N 52°40' E 005°36'0 0.0
2018-Apr-21 17:30N 52°40' E 005°36'0 0.0
2018-Apr-21 17:00N 52°40' E 005°36'0 0.0
2018-Apr-21 16:30N 52°40' E 005°36'0 0.0
2018-Apr-21 16:00N 52°40' E 005°36'0 0.0
2018-Apr-21 15:30N 52°40' E 005°36'0 0.0
2018-Apr-21 15:00N 52°40' E 005°36'0 0.0
2018-Apr-21 14:30N 52°40' E 005°36'0 0.0
2018-Apr-21 14:00N 52°40' E 005°36'0 0.2
2018-Apr-21 13:30N 52°39' E 005°36'3 5.4
2018-Apr-21 13:00N 52°37' E 005°38'1 2.7
2018-Apr-21 12:30N 52°36' E 005°40'3 5.9
2018-Apr-21 12:00N 52°35' E 005°44'3 7.0
2018-Apr-21 11:30N 52°35' E 005°50'3 6.5
2018-Apr-21 11:00N 52°34' E 005°55'0 0.1
2018-Apr-21 10:30N 52°34' E 005°55'0 0.0
2018-Apr-21 10:00N 52°34' E 005°55'0 0.0
2018-Apr-21 09:30N 52°34' E 005°55'0 0.0
2018-Apr-21 09:00N 52°34' E 005°55'0 0.0
2018-Apr-21 08:30N 52°34' E 005°55'0 0.0
2018-Apr-21 08:00N 52°34' E 005°55'0 0.0
2018-Apr-21 07:30N 52°34' E 005°55'0 0.0
2018-Apr-21 07:00N 52°34' E 005°55'0 0.0
2018-Apr-21 06:30N 52°34' E 005°55'0 0.0
2018-Apr-21 06:00N 52°34' E 005°55'0 0.0
2018-Apr-21 05:30N 52°34' E 005°55'0 0.0
2018-Apr-21 05:00N 52°34' E 005°55'0 0.0
2018-Apr-21 04:30N 52°34' E 005°55'0 0.0
2018-Apr-21 04:00N 52°34' E 005°55'0 0.0
2018-Apr-21 03:30N 52°34' E 005°55'0 0.0
2018-Apr-21 03:00N 52°34' E 005°55'0 0.0
2018-Apr-21 02:30N 52°34' E 005°55'0 0.0
2018-Apr-21 02:00N 52°34' E 005°55'0 0.0
2018-Apr-21 01:30N 52°34' E 005°55'0 0.0
2018-Apr-21 01:00N 52°34' E 005°55'0 0.0
2018-Apr-21 00:30N 52°34' E 005°55'0 0.0
2018-Apr-21 00:00N 52°34' E 005°55'0 0.0
2018-Apr-20 23:30N 52°34' E 005°55'0 0.0
2018-Apr-20 23:00N 52°34' E 005°55'0 0.0
2018-Apr-20 22:30N 52°34' E 005°55'0 0.0
2018-Apr-20 22:00N 52°34' E 005°55'0 0.0
2018-Apr-20 21:30N 52°34' E 005°55'0 0.0
2018-Apr-20 21:00N 52°34' E 005°55'0 0.0
2018-Apr-20 20:30N 52°34' E 005°55'0 0.0
2018-Apr-20 20:00N 52°34' E 005°55'0 0.0
2018-Apr-20 19:30N 52°34' E 005°55'0 0.0
2018-Apr-20 19:00N 52°34' E 005°55'0 0.0
2018-Apr-20 18:29N 52°34' E 005°55'0 0.0
2018-Apr-20 18:00N 52°34' E 005°55'0 0.0
2018-Apr-20 17:30N 52°34' E 005°55'0 0.0
2018-Apr-20 17:00N 52°34' E 005°55'0 0.0
2018-Apr-20 16:30N 52°34' E 005°55'0 0.0
2018-Apr-20 16:00N 52°34' E 005°55'0 0.0
2018-Apr-20 15:30N 52°34' E 005°55'0 0.0
2018-Apr-20 15:00N 52°34' E 005°55'0 0.0
2018-Apr-20 14:30N 52°34' E 005°55'0 0.0
2018-Apr-20 14:00N 52°34' E 005°55'0 0.0
2018-Apr-20 13:30N 52°34' E 005°55'0 0.0
2018-Apr-20 13:00N 52°34' E 005°55'0 0.0
2018-Apr-20 12:30N 52°34' E 005°55'0 0.0
2018-Apr-20 12:00N 52°34' E 005°55'0 0.0
2018-Apr-20 11:30N 52°34' E 005°55'0 0.0
2018-Apr-20 11:00N 52°34' E 005°55'0 0.0
2018-Apr-20 10:30N 52°34' E 005°55'0 0.0
2018-Apr-20 10:00N 52°34' E 005°55'0 0.0
2018-Apr-20 09:30N 52°34' E 005°55'0 0.0
2018-Apr-20 09:00N 52°34' E 005°55'0 0.0
2018-Apr-20 08:30N 52°34' E 005°55'0 0.0
2018-Apr-20 08:00N 52°34' E 005°55'0 0.0
2018-Apr-20 07:30N 52°34' E 005°55'0 0.0
2018-Apr-20 07:00N 52°34' E 005°55'0 0.0
2018-Apr-20 06:30N 52°34' E 005°55'0 0.0
2018-Apr-20 06:00N 52°34' E 005°55'0 0.0
2018-Apr-20 05:30N 52°34' E 005°55'0 0.0
2018-Apr-20 05:00N 52°34' E 005°55'0 0.0
2018-Apr-20 04:30N 52°34' E 005°55'0 0.0
2018-Apr-20 04:00N 52°34' E 005°55'0 0.0
2018-Apr-20 03:30N 52°34' E 005°55'0 0.0
2018-Apr-20 03:00N 52°34' E 005°55'0 0.0
2018-Apr-20 02:30N 52°34' E 005°55'0 0.0
2018-Apr-20 02:00N 52°34' E 005°55'0 0.0
2018-Apr-20 01:30N 52°34' E 005°55'0 0.0
2018-Apr-20 01:00N 52°34' E 005°55'0 0.0
2018-Apr-20 00:30N 52°34' E 005°55'0 0.0
2018-Apr-20 00:00N 52°34' E 005°55'0 0.0
2018-Apr-19 23:30N 52°34' E 005°55'0 0.0
2018-Apr-19 23:00N 52°34' E 005°55'0 0.0
2018-Apr-19 22:30N 52°34' E 005°55'0 0.0
2018-Apr-19 22:00N 52°34' E 005°55'0 0.0
2018-Apr-19 21:30N 52°34' E 005°55'0 0.0
2018-Apr-19 21:00N 52°34' E 005°55'0 0.0
2018-Apr-19 20:30N 52°34' E 005°55'0 0.0
2018-Apr-19 20:00N 52°34' E 005°55'0 0.0
2018-Apr-19 19:30N 52°34' E 005°55'0 0.0
2018-Apr-19 19:00N 52°34' E 005°55'0 0.0
2018-Apr-19 18:30N 52°34' E 005°55'0 0.0
2018-Apr-19 18:00N 52°34' E 005°55'0 0.0
2018-Apr-19 17:30N 52°34' E 005°55'0 0.0
2018-Apr-19 17:00N 52°34' E 005°55'0 0.0
2018-Apr-19 16:30N 52°34' E 005°55'0 0.0
2018-Apr-19 16:00N 52°34' E 005°55'0 0.0
2018-Apr-19 15:30N 52°34' E 005°55'0 0.0
2018-Apr-19 15:00N 52°34' E 005°55'0 0.0
2018-Apr-19 14:30N 52°34' E 005°55'0 0.0
2018-Apr-19 14:00N 52°34' E 005°55'0 0.0
2018-Apr-19 13:30N 52°34' E 005°55'0 0.0
2018-Apr-19 13:00N 52°34' E 005°55'0 0.0
2018-Apr-19 12:30N 52°34' E 005°55'0 0.0
2018-Apr-19 12:00N 52°34' E 005°55'0 0.0
2018-Apr-19 11:30N 52°34' E 005°55'0 0.0
2018-Apr-19 11:00N 52°34' E 005°55'0 0.0
2018-Apr-19 10:30N 52°34' E 005°55'0 0.0
2018-Apr-19 10:00N 52°34' E 005°55'0 0.0
2018-Apr-19 09:30N 52°34' E 005°55'0 0.0
2018-Apr-19 09:00N 52°34' E 005°55'0 0.0
2018-Apr-19 08:30N 52°34' E 005°55'0 0.0
2018-Apr-19 08:00N 52°34' E 005°55'0 0.0
2018-Apr-19 07:30N 52°34' E 005°55'0 0.0
2018-Apr-19 07:00N 52°34' E 005°55'0 0.0
2018-Apr-19 06:30N 52°34' E 005°55'0 0.0
2018-Apr-19 06:00N 52°34' E 005°55'0 0.0
2018-Apr-19 05:30N 52°34' E 005°55'0 0.0
2018-Apr-19 05:00N 52°34' E 005°55'0 0.0
2018-Apr-19 04:30N 52°34' E 005°55'0 0.0
2018-Apr-19 04:00N 52°34' E 005°55'0 0.0
2018-Apr-19 03:30N 52°34' E 005°55'0 0.0
2018-Apr-19 03:00N 52°34' E 005°55'0 0.0
2018-Apr-19 02:30N 52°34' E 005°55'0 0.0
2018-Apr-19 02:00N 52°34' E 005°55'0 0.0
2018-Apr-19 01:30N 52°34' E 005°55'0 0.0
2018-Apr-19 01:00N 52°34' E 005°55'0 0.0
2018-Apr-19 00:30N 52°34' E 005°55'0 0.0
2018-Apr-19 00:00N 52°34' E 005°55'0 0.0
2018-Apr-18 23:30N 52°34' E 005°55'0 0.0
2018-Apr-18 23:00N 52°34' E 005°55'0 0.0
2018-Apr-18 22:30N 52°34' E 005°55'0 0.0
2018-Apr-18 22:00N 52°34' E 005°55'0 0.0
2018-Apr-18 21:30N 52°34' E 005°55'0 0.0
2018-Apr-18 21:00N 52°34' E 005°55'0 0.0
2018-Apr-18 20:30N 52°34' E 005°55'0 0.0
2018-Apr-18 20:00N 52°34' E 005°55'0 0.0
2018-Apr-18 19:30N 52°34' E 005°55'0 0.0
2018-Apr-18 19:00N 52°34' E 005°55'0 0.0
2018-Apr-18 18:30N 52°34' E 005°55'0 0.0
2018-Apr-18 18:00N 52°34' E 005°55'0 0.0
2018-Apr-18 17:30N 52°34' E 005°55'0 0.0
2018-Apr-18 17:00N 52°34' E 005°55'0 0.0
2018-Apr-18 16:30N 52°34' E 005°55'0 0.0
2018-Apr-18 16:00N 52°34' E 005°55'0 0.0
2018-Apr-18 15:30N 52°34' E 005°55'0 0.0
2018-Apr-18 15:00N 52°34' E 005°55'0 0.0
2018-Apr-18 14:30N 52°34' E 005°55'0 0.0
2018-Apr-18 14:00N 52°34' E 005°55'0 0.0
2018-Apr-18 13:30N 52°34' E 005°55'0 0.0
2018-Apr-18 13:00N 52°34' E 005°55'0 0.0
2018-Apr-18 12:30N 52°34' E 005°55'0 0.0
2018-Apr-18 12:00N 52°34' E 005°55'0 0.0
2018-Apr-18 11:30N 52°34' E 005°55'0 0.0
2018-Apr-18 11:00N 52°34' E 005°55'0 0.0
2018-Apr-18 10:30N 52°34' E 005°55'0 0.0
2018-Apr-18 10:00N 52°34' E 005°55'0 0.0
2018-Apr-18 09:30N 52°34' E 005°55'0 0.0
2018-Apr-18 09:00N 52°34' E 005°55'0 0.0
2018-Apr-18 08:30N 52°34' E 005°55'0 0.0
2018-Apr-18 08:00N 52°34' E 005°55'0 0.0
2018-Apr-18 07:30N 52°34' E 005°55'0 0.0
2018-Apr-18 07:00N 52°34' E 005°55'0 0.0
2018-Apr-18 06:30N 52°34' E 005°55'0 0.0
2018-Apr-18 06:00N 52°34' E 005°55'0 0.0
2018-Apr-18 05:30N 52°34' E 005°55'0 0.0
2018-Apr-18 05:00N 52°34' E 005°55'0 0.0
2018-Apr-18 04:30N 52°34' E 005°55'0 0.0
2018-Apr-18 04:00N 52°34' E 005°55'0 0.0
2018-Apr-18 03:30N 52°34' E 005°55'0 0.0
2018-Apr-18 03:00N 52°34' E 005°55'0 0.0
2018-Apr-18 02:30N 52°34' E 005°55'0 0.0
2018-Apr-18 02:00N 52°34' E 005°55'0 0.0
2018-Apr-18 01:30N 52°34' E 005°55'0 0.0
2018-Apr-18 01:00N 52°34' E 005°55'0 0.0
2018-Apr-18 00:30N 52°34' E 005°55'0 0.0
2018-Apr-18 00:00N 52°34' E 005°55'0 0.0
2018-Apr-17 23:30N 52°34' E 005°55'0 0.0
2018-Apr-17 23:00N 52°34' E 005°55'0 0.0
2018-Apr-17 22:30N 52°34' E 005°55'0 0.0
2018-Apr-17 22:00N 52°34' E 005°55'0 0.0
2018-Apr-17 21:30N 52°34' E 005°55'0 0.0
2018-Apr-17 21:00N 52°34' E 005°55'0 0.0
2018-Apr-17 20:30N 52°34' E 005°55'0 0.0
2018-Apr-17 20:00N 52°34' E 005°55'0 0.0
2018-Apr-17 19:30N 52°34' E 005°55'0 0.0
2018-Apr-17 19:00N 52°34' E 005°55'0 0.0
2018-Apr-17 18:30N 52°34' E 005°55'0 0.0
2018-Apr-17 18:00N 52°34' E 005°55'0 0.0
2018-Apr-17 17:30N 52°34' E 005°55'0 0.0
2018-Apr-17 17:00N 52°34' E 005°55'0 0.0
2018-Apr-17 16:30N 52°34' E 005°55'0 0.0
2018-Apr-17 16:00N 52°34' E 005°55'0 0.0
2018-Apr-17 15:30N 52°34' E 005°55'0 0.0
2018-Apr-17 15:00N 52°34' E 005°55'0 0.0
2018-Apr-17 14:30N 52°34' E 005°55'0 0.0
2018-Apr-17 14:00N 52°34' E 005°55'0 0.0
2018-Apr-17 13:30N 52°34' E 005°55'0 0.0
2018-Apr-17 13:00N 52°34' E 005°55'0 0.0
2018-Apr-17 12:30N 52°34' E 005°55'0 0.0
2018-Apr-17 12:00N 52°34' E 005°55'0 0.0
2018-Apr-17 11:30N 52°34' E 005°55'0 0.0
2018-Apr-17 11:00N 52°34' E 005°55'0 0.0
2018-Apr-17 10:30N 52°34' E 005°55'0 0.0
2018-Apr-17 10:00N 52°34' E 005°55'0 0.0
2018-Apr-17 09:30N 52°34' E 005°55'0 0.0
2018-Apr-17 09:00N 52°34' E 005°55'0 0.0
2018-Apr-17 08:30N 52°34' E 005°55'0 0.0
2018-Apr-17 08:00N 52°34' E 005°55'0 0.0
2018-Apr-17 07:30N 52°34' E 005°55'0 0.0
2018-Apr-17 07:00N 52°34' E 005°55'0 0.0
2018-Apr-17 06:30N 52°34' E 005°55'0 0.0
2018-Apr-17 06:00N 52°34' E 005°55'0 0.0
2018-Apr-17 05:30N 52°34' E 005°55'0 0.0
2018-Apr-17 05:00N 52°34' E 005°55'0 0.0
2018-Apr-17 04:30N 52°34' E 005°55'0 0.0
2018-Apr-17 04:00N 52°34' E 005°55'0 0.0
2018-Apr-17 03:30N 52°34' E 005°55'0 0.0
2018-Apr-17 03:00N 52°34' E 005°55'0 0.0
2018-Apr-17 02:30N 52°34' E 005°55'0 0.0
2018-Apr-17 02:00N 52°34' E 005°55'0 0.0
2018-Apr-17 01:30N 52°34' E 005°55'0 0.0
2018-Apr-17 01:00N 52°34' E 005°55'0 0.0
2018-Apr-17 00:30N 52°34' E 005°55'0 0.0
2018-Apr-17 00:00N 52°34' E 005°55'0 0.0
2018-Apr-16 23:30N 52°34' E 005°55'0 0.0
2018-Apr-16 23:00N 52°34' E 005°55'0 0.0
2018-Apr-16 22:30N 52°34' E 005°55'0 0.0
2018-Apr-16 22:00N 52°34' E 005°55'0 0.0
2018-Apr-16 21:30N 52°34' E 005°55'0 0.0
2018-Apr-16 21:00N 52°34' E 005°55'0 0.0
2018-Apr-16 20:30N 52°34' E 005°55'0 0.0
2018-Apr-16 20:00N 52°34' E 005°55'0 0.0
2018-Apr-16 19:30N 52°34' E 005°55'0 0.0
2018-Apr-16 19:00N 52°34' E 005°55'0 0.0
2018-Apr-16 18:30N 52°34' E 005°55'0 0.0
2018-Apr-16 18:00N 52°34' E 005°55'0 0.0
2018-Apr-16 17:30N 52°34' E 005°55'0 0.0
2018-Apr-16 17:00N 52°34' E 005°55'0 0.0
2018-Apr-16 16:30N 52°34' E 005°55'0 0.0
2018-Apr-16 16:00N 52°34' E 005°55'0 0.0
2018-Apr-16 15:30N 52°34' E 005°55'0 0.0
2018-Apr-16 15:00N 52°34' E 005°55'0 0.0
2018-Apr-16 14:30N 52°34' E 005°55'0 0.0
2018-Apr-16 14:00N 52°34' E 005°55'0 0.0
2018-Apr-16 13:30N 52°34' E 005°55'0 0.0
2018-Apr-16 13:00N 52°34' E 005°55'0 0.0
2018-Apr-16 12:30N 52°34' E 005°55'0 0.0
2018-Apr-16 12:00N 52°34' E 005°55'0 0.0
2018-Apr-16 11:30N 52°34' E 005°55'0 0.0
2018-Apr-16 11:00N 52°34' E 005°55'  

Dump ship's entire track history